sensor_id;sensor_type;location;lat;lon;timestamp;P1;durP1;ratioP1;P2;durP2;ratioP2
10910;SDS011;5508;49.150;11.030;2023-04-27T00:02:46;5.47;;;3.10;;
10910;SDS011;5508;49.150;11.030;2023-04-27T00:05:47;5.80;;;3.33;;
10910;SDS011;5508;49.150;11.030;2023-04-27T00:08:47;4.30;;;3.90;;
10910;SDS011;5508;49.150;11.030;2023-04-27T00:11:48;6.90;;;3.97;;
10910;SDS011;5508;49.150;11.030;2023-04-27T00:14:48;6.27;;;3.77;;
10910;SDS011;5508;49.150;11.030;2023-04-27T00:17:49;4.73;;;3.77;;
10910;SDS011;5508;49.150;11.030;2023-04-27T00:20:50;7.00;;;3.80;;
10910;SDS011;5508;49.150;11.030;2023-04-27T00:23:50;9.70;;;3.73;;
10910;SDS011;5508;49.150;11.030;2023-04-27T00:26:51;4.80;;;3.40;;
10910;SDS011;5508;49.150;11.030;2023-04-27T00:29:51;4.87;;;3.20;;
10910;SDS011;5508;49.150;11.030;2023-04-27T00:32:52;4.83;;;3.20;;
10910;SDS011;5508;49.150;11.030;2023-04-27T00:35:52;9.10;;;3.63;;
10910;SDS011;5508;49.150;11.030;2023-04-27T00:38:53;4.20;;;3.53;;
10910;SDS011;5508;49.150;11.030;2023-04-27T00:41:53;4.13;;;3.00;;
10910;SDS011;5508;49.150;11.030;2023-04-27T00:44:56;3.93;;;3.20;;
10910;SDS011;5508;49.150;11.030;2023-04-27T00:47:57;4.13;;;3.27;;
10910;SDS011;5508;49.150;11.030;2023-04-27T00:50:58;4.87;;;3.10;;
10910;SDS011;5508;49.150;11.030;2023-04-27T00:53:59;8.73;;;3.50;;
10910;SDS011;5508;49.150;11.030;2023-04-27T00:57:00;5.20;;;3.40;;
10910;SDS011;5508;49.150;11.030;2023-04-27T01:00:03;7.07;;;3.80;;
10910;SDS011;5508;49.150;11.030;2023-04-27T01:03:06;5.90;;;3.83;;
10910;SDS011;5508;49.150;11.030;2023-04-27T01:06:07;5.03;;;3.10;;
10910;SDS011;5508;49.150;11.030;2023-04-27T01:09:07;7.03;;;3.20;;
10910;SDS011;5508;49.150;11.030;2023-04-27T01:12:08;3.43;;;3.03;;
10910;SDS011;5508;49.150;11.030;2023-04-27T01:15:09;3.93;;;3.10;;
10910;SDS011;5508;49.150;11.030;2023-04-27T01:18:10;5.33;;;2.97;;
10910;SDS011;5508;49.150;11.030;2023-04-27T01:21:11;7.67;;;3.60;;
10910;SDS011;5508;49.150;11.030;2023-04-27T01:24:12;5.10;;;3.43;;
10910;SDS011;5508;49.150;11.030;2023-04-27T01:27:12;4.97;;;3.60;;
10910;SDS011;5508;49.150;11.030;2023-04-27T01:30:13;4.97;;;3.13;;
10910;SDS011;5508;49.150;11.030;2023-04-27T01:33:14;4.23;;;3.00;;
10910;SDS011;5508;49.150;11.030;2023-04-27T01:36:15;6.57;;;3.23;;
10910;SDS011;5508;49.150;11.030;2023-04-27T01:39:16;4.57;;;3.20;;
10910;SDS011;5508;49.150;11.030;2023-04-27T01:42:16;5.87;;;3.20;;
10910;SDS011;5508;49.150;11.030;2023-04-27T01:45:17;7.17;;;3.93;;
10910;SDS011;5508;49.150;11.030;2023-04-27T01:48:17;4.73;;;3.40;;
10910;SDS011;5508;49.150;11.030;2023-04-27T01:51:18;4.40;;;3.30;;
10910;SDS011;5508;49.150;11.030;2023-04-27T01:54:19;5.30;;;3.77;;
10910;SDS011;5508;49.150;11.030;2023-04-27T01:57:20;7.17;;;3.63;;
10910;SDS011;5508;49.150;11.030;2023-04-27T02:00:20;3.67;;;3.20;;
10910;SDS011;5508;49.150;11.030;2023-04-27T02:03:21;4.23;;;3.83;;
10910;SDS011;5508;49.150;11.030;2023-04-27T02:06:22;5.20;;;3.80;;
10910;SDS011;5508;49.150;11.030;2023-04-27T02:09:22;7.43;;;3.50;;
10910;SDS011;5508;49.150;11.030;2023-04-27T02:12:23;4.77;;;3.93;;
10910;SDS011;5508;49.150;11.030;2023-04-27T02:15:23;6.73;;;3.40;;
10910;SDS011;5508;49.150;11.030;2023-04-27T02:18:24;8.03;;;3.77;;
10910;SDS011;5508;49.150;11.030;2023-04-27T02:21:26;4.63;;;3.20;;
10910;SDS011;5508;49.150;11.030;2023-04-27T02:24:27;4.80;;;3.17;;
10910;SDS011;5508;49.150;11.030;2023-04-27T02:27:28;5.27;;;3.40;;
10910;SDS011;5508;49.150;11.030;2023-04-27T02:30:28;3.57;;;3.10;;
10910;SDS011;5508;49.150;11.030;2023-04-27T02:33:29;4.73;;;3.67;;
10910;SDS011;5508;49.150;11.030;2023-04-27T02:36:30;6.77;;;3.80;;
10910;SDS011;5508;49.150;11.030;2023-04-27T02:39:31;7.43;;;4.00;;
10910;SDS011;5508;49.150;11.030;2023-04-27T02:42:31;6.13;;;4.00;;
10910;SDS011;5508;49.150;11.030;2023-04-27T02:45:35;6.47;;;3.80;;
10910;SDS011;5508;49.150;11.030;2023-04-27T02:48:37;6.53;;;3.63;;
10910;SDS011;5508;49.150;11.030;2023-04-27T02:51:37;4.37;;;3.43;;
10910;SDS011;5508;49.150;11.030;2023-04-27T02:54:38;4.27;;;3.20;;
10910;SDS011;5508;49.150;11.030;2023-04-27T02:57:38;6.30;;;3.83;;
10910;SDS011;5508;49.150;11.030;2023-04-27T03:00:40;7.47;;;4.00;;
10910;SDS011;5508;49.150;11.030;2023-04-27T03:03:40;6.43;;;4.20;;
10910;SDS011;5508;49.150;11.030;2023-04-27T03:06:43;5.47;;;4.10;;
10910;SDS011;5508;49.150;11.030;2023-04-27T03:09:44;4.47;;;3.53;;
10910;SDS011;5508;49.150;11.030;2023-04-27T03:12:45;4.23;;;3.50;;
10910;SDS011;5508;49.150;11.030;2023-04-27T03:15:45;6.00;;;3.10;;
10910;SDS011;5508;49.150;11.030;2023-04-27T03:18:46;3.87;;;3.37;;
10910;SDS011;5508;49.150;11.030;2023-04-27T03:21:47;5.90;;;3.93;;
10910;SDS011;5508;49.150;11.030;2023-04-27T03:24:47;3.90;;;3.50;;
10910;SDS011;5508;49.150;11.030;2023-04-27T03:27:48;8.50;;;4.13;;
10910;SDS011;5508;49.150;11.030;2023-04-27T03:30:48;5.53;;;4.10;;
10910;SDS011;5508;49.150;11.030;2023-04-27T03:33:49;5.87;;;3.77;;
10910;SDS011;5508;49.150;11.030;2023-04-27T03:36:50;4.97;;;4.00;;
10910;SDS011;5508;49.150;11.030;2023-04-27T03:39:51;5.90;;;3.70;;
10910;SDS011;5508;49.150;11.030;2023-04-27T03:42:52;7.53;;;3.50;;
10910;SDS011;5508;49.150;11.030;2023-04-27T03:45:52;5.23;;;4.10;;
10910;SDS011;5508;49.150;11.030;2023-04-27T03:48:53;33.97;;;21.10;;
10910;SDS011;5508;49.150;11.030;2023-04-27T03:51:53;34.00;;;21.17;;
10910;SDS011;5508;49.150;11.030;2023-04-27T03:54:54;22.40;;;14.50;;
10910;SDS011;5508;49.150;11.030;2023-04-27T03:57:55;10.57;;;6.83;;
10910;SDS011;5508;49.150;11.030;2023-04-27T04:00:55;23.23;;;13.20;;
10910;SDS011;5508;49.150;11.030;2023-04-27T04:03:57;27.33;;;16.57;;
10910;SDS011;5508;49.150;11.030;2023-04-27T04:06:58;13.27;;;6.80;;
10910;SDS011;5508;49.150;11.030;2023-04-27T04:09:58;18.33;;;12.50;;
10910;SDS011;5508;49.150;11.030;2023-04-27T04:12:59;13.37;;;8.37;;
10910;SDS011;5508;49.150;11.030;2023-04-27T04:16:06;8.53;;;4.90;;
10910;SDS011;5508;49.150;11.030;2023-04-27T04:19:08;8.83;;;4.40;;
10910;SDS011;5508;49.150;11.030;2023-04-27T04:22:09;6.27;;;3.93;;
10910;SDS011;5508;49.150;11.030;2023-04-27T04:25:10;6.40;;;3.97;;
10910;SDS011;5508;49.150;11.030;2023-04-27T04:28:11;4.63;;;4.00;;
10910;SDS011;5508;49.150;11.030;2023-04-27T04:31:12;4.87;;;4.37;;
10910;SDS011;5508;49.150;11.030;2023-04-27T04:34:17;13.70;;;5.67;;
10910;SDS011;5508;49.150;11.030;2023-04-27T04:37:18;9.27;;;7.33;;
10910;SDS011;5508;49.150;11.030;2023-04-27T04:40:19;15.10;;;8.83;;
10910;SDS011;5508;49.150;11.030;2023-04-27T04:43:20;14.40;;;10.30;;
10910;SDS011;5508;49.150;11.030;2023-04-27T04:46:21;8.73;;;4.77;;
10910;SDS011;5508;49.150;11.030;2023-04-27T04:49:23;22.40;;;6.33;;
10910;SDS011;5508;49.150;11.030;2023-04-27T04:52:24;25.77;;;6.03;;
10910;SDS011;5508;49.150;11.030;2023-04-27T04:55:26;39.47;;;24.07;;
10910;SDS011;5508;49.150;11.030;2023-04-27T04:58:27;25.00;;;16.60;;
10910;SDS011;5508;49.150;11.030;2023-04-27T05:01:27;12.27;;;9.03;;
10910;SDS011;5508;49.150;11.030;2023-04-27T05:04:28;39.67;;;10.93;;
10910;SDS011;5508;49.150;11.030;2023-04-27T05:07:29;22.83;;;6.37;;
10910;SDS011;5508;49.150;11.030;2023-04-27T05:10:29;8.20;;;5.80;;
10910;SDS011;5508;49.150;11.030;2023-04-27T05:13:30;15.87;;;6.00;;
10910;SDS011;5508;49.150;11.030;2023-04-27T05:16:31;7.87;;;6.87;;
10910;SDS011;5508;49.150;11.030;2023-04-27T05:19:31;12.13;;;6.83;;
10910;SDS011;5508;49.150;11.030;2023-04-27T05:22:32;6.60;;;5.50;;
10910;SDS011;5508;49.150;11.030;2023-04-27T05:25:33;11.70;;;8.33;;
10910;SDS011;5508;49.150;11.030;2023-04-27T05:28:40;13.07;;;7.47;;
10910;SDS011;5508;49.150;11.030;2023-04-27T05:31:41;7.67;;;6.10;;
10910;SDS011;5508;49.150;11.030;2023-04-27T05:34:42;13.77;;;8.27;;
10910;SDS011;5508;49.150;11.030;2023-04-27T05:37:43;12.43;;;7.63;;
10910;SDS011;5508;49.150;11.030;2023-04-27T05:40:44;9.40;;;7.10;;
10910;SDS011;5508;49.150;11.030;2023-04-27T05:43:45;10.83;;;8.50;;
10910;SDS011;5508;49.150;11.030;2023-04-27T05:46:45;8.10;;;5.93;;
10910;SDS011;5508;49.150;11.030;2023-04-27T05:49:49;7.07;;;4.53;;
10910;SDS011;5508;49.150;11.030;2023-04-27T05:52:51;6.03;;;4.80;;
10910;SDS011;5508;49.150;11.030;2023-04-27T05:55:52;6.63;;;4.47;;
10910;SDS011;5508;49.150;11.030;2023-04-27T05:58:52;7.10;;;5.07;;
10910;SDS011;5508;49.150;11.030;2023-04-27T06:01:53;5.87;;;5.00;;
10910;SDS011;5508;49.150;11.030;2023-04-27T06:04:53;7.87;;;5.43;;
10910;SDS011;5508;49.150;11.030;2023-04-27T06:07:54;11.43;;;7.03;;
10910;SDS011;5508;49.150;11.030;2023-04-27T06:10:55;7.60;;;5.40;;
10910;SDS011;5508;49.150;11.030;2023-04-27T06:13:56;9.20;;;5.77;;
10910;SDS011;5508;49.150;11.030;2023-04-27T06:16:56;8.63;;;5.63;;
10910;SDS011;5508;49.150;11.030;2023-04-27T06:19:57;8.73;;;5.93;;
10910;SDS011;5508;49.150;11.030;2023-04-27T06:22:58;8.80;;;6.00;;
10910;SDS011;5508;49.150;11.030;2023-04-27T06:25:59;9.27;;;6.53;;
10910;SDS011;5508;49.150;11.030;2023-04-27T06:29:00;7.33;;;5.20;;
10910;SDS011;5508;49.150;11.030;2023-04-27T06:32:03;9.70;;;6.10;;
10910;SDS011;5508;49.150;11.030;2023-04-27T06:35:05;6.40;;;5.77;;
10910;SDS011;5508;49.150;11.030;2023-04-27T06:38:06;9.27;;;7.10;;
10910;SDS011;5508;49.150;11.030;2023-04-27T06:41:07;12.87;;;11.53;;
10910;SDS011;5508;49.150;11.030;2023-04-27T06:44:07;13.77;;;11.93;;
10910;SDS011;5508;49.150;11.030;2023-04-27T06:47:08;13.03;;;7.90;;
10910;SDS011;5508;49.150;11.030;2023-04-27T06:50:08;11.07;;;6.43;;
10910;SDS011;5508;49.150;11.030;2023-04-27T06:53:09;6.40;;;5.00;;
10910;SDS011;5508;49.150;11.030;2023-04-27T06:56:10;9.53;;;5.30;;
10910;SDS011;5508;49.150;11.030;2023-04-27T06:59:11;6.27;;;4.30;;
10910;SDS011;5508;49.150;11.030;2023-04-27T07:02:11;6.83;;;4.47;;
10910;SDS011;5508;49.150;11.030;2023-04-27T07:05:12;7.77;;;5.00;;
10910;SDS011;5508;49.150;11.030;2023-04-27T07:08:13;9.50;;;5.37;;
10910;SDS011;5508;49.150;11.030;2023-04-27T07:11:13;6.43;;;4.90;;
10910;SDS011;5508;49.150;11.030;2023-04-27T07:14:15;10.77;;;5.93;;
10910;SDS011;5508;49.150;11.030;2023-04-27T07:17:15;5.40;;;4.47;;
10910;SDS011;5508;49.150;11.030;2023-04-27T07:20:16;11.80;;;6.00;;
10910;SDS011;5508;49.150;11.030;2023-04-27T07:23:17;7.03;;;5.13;;
10910;SDS011;5508;49.150;11.030;2023-04-27T07:26:18;7.30;;;4.93;;
10910;SDS011;5508;49.150;11.030;2023-04-27T07:29:18;10.57;;;4.70;;
10910;SDS011;5508;49.150;11.030;2023-04-27T07:32:19;5.93;;;4.80;;
10910;SDS011;5508;49.150;11.030;2023-04-27T07:35:20;9.37;;;5.27;;
10910;SDS011;5508;49.150;11.030;2023-04-27T07:38:21;8.53;;;5.23;;
10910;SDS011;5508;49.150;11.030;2023-04-27T07:41:22;15.60;;;6.47;;
10910;SDS011;5508;49.150;11.030;2023-04-27T07:44:23;9.30;;;5.73;;
10910;SDS011;5508;49.150;11.030;2023-04-27T07:47:23;8.60;;;5.97;;
10910;SDS011;5508;49.150;11.030;2023-04-27T07:50:27;9.40;;;5.73;;
10910;SDS011;5508;49.150;11.030;2023-04-27T07:53:28;7.00;;;5.10;;
10910;SDS011;5508;49.150;11.030;2023-04-27T07:56:29;13.53;;;6.83;;
10910;SDS011;5508;49.150;11.030;2023-04-27T07:59:30;9.63;;;6.97;;
10910;SDS011;5508;49.150;11.030;2023-04-27T08:02:30;10.57;;;7.07;;
10910;SDS011;5508;49.150;11.030;2023-04-27T08:05:33;9.87;;;6.37;;
10910;SDS011;5508;49.150;11.030;2023-04-27T08:08:34;13.10;;;6.90;;
10910;SDS011;5508;49.150;11.030;2023-04-27T08:11:34;12.17;;;7.47;;
10910;SDS011;5508;49.150;11.030;2023-04-27T08:14:35;10.97;;;5.93;;
10910;SDS011;5508;49.150;11.030;2023-04-27T08:17:35;6.37;;;4.20;;
10910;SDS011;5508;49.150;11.030;2023-04-27T08:20:39;7.27;;;5.60;;
10910;SDS011;5508;49.150;11.030;2023-04-27T08:23:40;6.57;;;5.20;;
10910;SDS011;5508;49.150;11.030;2023-04-27T08:26:41;7.67;;;5.00;;
10910;SDS011;5508;49.150;11.030;2023-04-27T08:29:45;8.37;;;5.20;;
10910;SDS011;5508;49.150;11.030;2023-04-27T08:32:46;7.63;;;5.43;;
10910;SDS011;5508;49.150;11.030;2023-04-27T08:35:47;10.43;;;5.70;;
10910;SDS011;5508;49.150;11.030;2023-04-27T08:38:48;10.70;;;6.03;;
10910;SDS011;5508;49.150;11.030;2023-04-27T08:41:48;9.33;;;4.80;;
10910;SDS011;5508;49.150;11.030;2023-04-27T08:44:49;5.67;;;4.40;;
10910;SDS011;5508;49.150;11.030;2023-04-27T08:47:50;7.87;;;4.97;;
10910;SDS011;5508;49.150;11.030;2023-04-27T08:50:50;5.20;;;4.10;;
10910;SDS011;5508;49.150;11.030;2023-04-27T08:53:53;6.03;;;4.20;;
10910;SDS011;5508;49.150;11.030;2023-04-27T08:56:56;8.77;;;4.10;;
10910;SDS011;5508;49.150;11.030;2023-04-27T08:59:58;8.07;;;3.47;;
10910;SDS011;5508;49.150;11.030;2023-04-27T09:02:59;8.03;;;3.80;;
10910;SDS011;5508;49.150;11.030;2023-04-27T09:06:03;5.80;;;3.63;;
10910;SDS011;5508;49.150;11.030;2023-04-27T09:09:04;13.00;;;3.77;;
10910;SDS011;5508;49.150;11.030;2023-04-27T09:12:19;5.23;;;3.73;;
10910;SDS011;5508;49.150;11.030;2023-04-27T09:15:20;4.03;;;2.83;;
10910;SDS011;5508;49.150;11.030;2023-04-27T09:18:21;6.43;;;3.47;;
10910;SDS011;5508;49.150;11.030;2023-04-27T09:21:26;6.43;;;3.60;;
10910;SDS011;5508;49.150;11.030;2023-04-27T09:24:31;7.93;;;3.57;;
10910;SDS011;5508;49.150;11.030;2023-04-27T09:27:32;8.10;;;3.57;;
10910;SDS011;5508;49.150;11.030;2023-04-27T09:30:33;5.13;;;3.00;;
10910;SDS011;5508;49.150;11.030;2023-04-27T09:33:35;7.73;;;3.00;;
10910;SDS011;5508;49.150;11.030;2023-04-27T09:36:36;4.57;;;2.93;;
10910;SDS011;5508;49.150;11.030;2023-04-27T09:39:38;6.33;;;3.17;;
10910;SDS011;5508;49.150;11.030;2023-04-27T09:42:40;7.40;;;3.27;;
10910;SDS011;5508;49.150;11.030;2023-04-27T09:45:41;6.63;;;3.70;;
10910;SDS011;5508;49.150;11.030;2023-04-27T09:48:42;5.30;;;3.33;;
10910;SDS011;5508;49.150;11.030;2023-04-27T09:51:42;7.77;;;2.97;;
10910;SDS011;5508;49.150;11.030;2023-04-27T09:54:43;6.43;;;2.93;;
10910;SDS011;5508;49.150;11.030;2023-04-27T09:57:48;3.47;;;2.70;;
10910;SDS011;5508;49.150;11.030;2023-04-27T10:07:54;7.93;;;3.13;;
10910;SDS011;5508;49.150;11.030;2023-04-27T10:10:55;7.57;;;3.17;;
10910;SDS011;5508;49.150;11.030;2023-04-27T10:13:55;9.27;;;3.20;;
10910;SDS011;5508;49.150;11.030;2023-04-27T10:16:56;4.97;;;2.93;;
10910;SDS011;5508;49.150;11.030;2023-04-27T10:19:58;8.20;;;3.53;;
10910;SDS011;5508;49.150;11.030;2023-04-27T10:23:04;5.03;;;3.10;;
10910;SDS011;5508;49.150;11.030;2023-04-27T10:26:06;4.13;;;2.87;;
10910;SDS011;5508;49.150;11.030;2023-04-27T10:29:07;8.73;;;3.43;;
10910;SDS011;5508;49.150;11.030;2023-04-27T10:32:12;6.30;;;3.60;;
10910;SDS011;5508;49.150;11.030;2023-04-27T10:35:18;6.50;;;3.23;;
10910;SDS011;5508;49.150;11.030;2023-04-27T10:38:21;5.40;;;3.40;;
10910;SDS011;5508;49.150;11.030;2023-04-27T10:41:33;6.93;;;3.60;;
10910;SDS011;5508;49.150;11.030;2023-04-27T10:44:36;5.57;;;3.40;;
10910;SDS011;5508;49.150;11.030;2023-04-27T10:47:41;6.80;;;3.43;;
10910;SDS011;5508;49.150;11.030;2023-04-27T10:50:43;7.10;;;3.63;;
10910;SDS011;5508;49.150;11.030;2023-04-27T10:53:43;6.47;;;3.63;;
10910;SDS011;5508;49.150;11.030;2023-04-27T10:56:44;6.37;;;3.50;;
10910;SDS011;5508;49.150;11.030;2023-04-27T10:59:49;6.93;;;2.83;;
10910;SDS011;5508;49.150;11.030;2023-04-27T11:02:55;4.40;;;3.53;;
10910;SDS011;5508;49.150;11.030;2023-04-27T11:06:00;3.60;;;3.30;;
10910;SDS011;5508;49.150;11.030;2023-04-27T11:09:03;4.90;;;3.10;;
10910;SDS011;5508;49.150;11.030;2023-04-27T11:12:05;7.60;;;3.60;;
10910;SDS011;5508;49.150;11.030;2023-04-27T11:15:07;6.20;;;4.30;;
10910;SDS011;5508;49.150;11.030;2023-04-27T11:18:08;4.73;;;3.50;;
10910;SDS011;5508;49.150;11.030;2023-04-27T11:21:11;5.83;;;3.90;;
10910;SDS011;5508;49.150;11.030;2023-04-27T11:24:13;6.37;;;3.77;;
10910;SDS011;5508;49.150;11.030;2023-04-27T11:27:14;5.67;;;3.40;;
10910;SDS011;5508;49.150;11.030;2023-04-27T11:30:18;7.40;;;3.20;;
10910;SDS011;5508;49.150;11.030;2023-04-27T11:33:20;6.47;;;3.90;;
10910;SDS011;5508;49.150;11.030;2023-04-27T11:36:22;8.27;;;3.43;;
10910;SDS011;5508;49.150;11.030;2023-04-27T11:39:25;6.10;;;3.40;;
10910;SDS011;5508;49.150;11.030;2023-04-27T11:42:27;4.57;;;3.20;;
10910;SDS011;5508;49.150;11.030;2023-04-27T11:45:27;5.80;;;3.60;;
10910;SDS011;5508;49.150;11.030;2023-04-27T11:48:29;4.87;;;3.30;;
10910;SDS011;5508;49.150;11.030;2023-04-27T11:51:30;6.50;;;3.40;;
10910;SDS011;5508;49.150;11.030;2023-04-27T11:54:38;5.80;;;3.27;;
10910;SDS011;5508;49.150;11.030;2023-04-27T11:57:38;4.57;;;2.80;;
10910;SDS011;5508;49.150;11.030;2023-04-27T12:00:39;5.97;;;3.70;;
10910;SDS011;5508;49.150;11.030;2023-04-27T12:03:40;5.07;;;3.30;;
10910;SDS011;5508;49.150;11.030;2023-04-27T12:06:40;5.13;;;3.23;;
10910;SDS011;5508;49.150;11.030;2023-04-27T12:09:41;3.67;;;2.80;;
10910;SDS011;5508;49.150;11.030;2023-04-27T12:12:42;4.43;;;3.27;;
10910;SDS011;5508;49.150;11.030;2023-04-27T12:15:43;22.23;;;13.30;;
10910;SDS011;5508;49.150;11.030;2023-04-27T12:18:43;6.23;;;3.13;;
10910;SDS011;5508;49.150;11.030;2023-04-27T12:21:44;5.33;;;3.70;;
10910;SDS011;5508;49.150;11.030;2023-04-27T12:24:45;5.30;;;2.90;;
10910;SDS011;5508;49.150;11.030;2023-04-27T12:27:46;5.87;;;3.10;;
10910;SDS011;5508;49.150;11.030;2023-04-27T12:30:47;5.40;;;3.63;;
10910;SDS011;5508;49.150;11.030;2023-04-27T12:33:48;5.50;;;3.13;;
10910;SDS011;5508;49.150;11.030;2023-04-27T12:36:50;6.27;;;3.40;;
10910;SDS011;5508;49.150;11.030;2023-04-27T12:39:50;4.93;;;3.50;;
10910;SDS011;5508;49.150;11.030;2023-04-27T12:42:51;5.27;;;3.10;;
10910;SDS011;5508;49.150;11.030;2023-04-27T12:45:52;4.53;;;3.37;;
10910;SDS011;5508;49.150;11.030;2023-04-27T12:48:52;5.50;;;3.60;;
10910;SDS011;5508;49.150;11.030;2023-04-27T12:51:55;3.77;;;3.10;;
10910;SDS011;5508;49.150;11.030;2023-04-27T12:54:57;5.03;;;3.60;;
10910;SDS011;5508;49.150;11.030;2023-04-27T12:57:58;5.70;;;3.20;;
10910;SDS011;5508;49.150;11.030;2023-04-27T13:00:58;6.90;;;2.87;;
10910;SDS011;5508;49.150;11.030;2023-04-27T13:04:00;4.93;;;2.90;;
10910;SDS011;5508;49.150;11.030;2023-04-27T13:07:01;5.80;;;3.17;;
10910;SDS011;5508;49.150;11.030;2023-04-27T13:10:02;5.10;;;3.37;;
10910;SDS011;5508;49.150;11.030;2023-04-27T13:13:03;5.77;;;3.33;;
10910;SDS011;5508;49.150;11.030;2023-04-27T13:16:05;6.80;;;3.73;;
10910;SDS011;5508;49.150;11.030;2023-04-27T13:19:06;6.27;;;3.43;;
10910;SDS011;5508;49.150;11.030;2023-04-27T13:22:07;4.80;;;3.13;;
10910;SDS011;5508;49.150;11.030;2023-04-27T13:25:08;7.10;;;3.87;;
10910;SDS011;5508;49.150;11.030;2023-04-27T13:28:09;8.30;;;3.83;;
10910;SDS011;5508;49.150;11.030;2023-04-27T13:31:10;6.57;;;3.83;;
10910;SDS011;5508;49.150;11.030;2023-04-27T13:34:11;6.47;;;4.23;;
10910;SDS011;5508;49.150;11.030;2023-04-27T13:37:11;4.87;;;3.47;;
10910;SDS011;5508;49.150;11.030;2023-04-27T13:40:12;5.63;;;3.83;;
10910;SDS011;5508;49.150;11.030;2023-04-27T13:43:12;7.97;;;3.90;;
10910;SDS011;5508;49.150;11.030;2023-04-27T13:46:13;7.03;;;4.63;;
10910;SDS011;5508;49.150;11.030;2023-04-27T13:49:14;7.07;;;3.70;;
10910;SDS011;5508;49.150;11.030;2023-04-27T13:52:15;7.47;;;3.80;;
10910;SDS011;5508;49.150;11.030;2023-04-27T13:55:15;5.20;;;3.60;;
10910;SDS011;5508;49.150;11.030;2023-04-27T13:58:16;4.37;;;3.37;;
10910;SDS011;5508;49.150;11.030;2023-04-27T14:01:16;4.73;;;3.63;;
10910;SDS011;5508;49.150;11.030;2023-04-27T14:04:17;5.43;;;3.47;;
10910;SDS011;5508;49.150;11.030;2023-04-27T14:07:18;5.77;;;3.40;;
10910;SDS011;5508;49.150;11.030;2023-04-27T14:10:18;4.77;;;3.40;;
10910;SDS011;5508;49.150;11.030;2023-04-27T14:13:19;4.73;;;3.20;;
10910;SDS011;5508;49.150;11.030;2023-04-27T14:16:20;4.30;;;3.30;;
10910;SDS011;5508;49.150;11.030;2023-04-27T14:19:20;5.10;;;3.40;;
10910;SDS011;5508;49.150;11.030;2023-04-27T14:22:21;5.87;;;3.43;;
10910;SDS011;5508;49.150;11.030;2023-04-27T14:25:22;7.23;;;3.80;;
10910;SDS011;5508;49.150;11.030;2023-04-27T14:28:22;5.33;;;4.47;;
10910;SDS011;5508;49.150;11.030;2023-04-27T14:31:23;7.77;;;3.60;;
10910;SDS011;5508;49.150;11.030;2023-04-27T14:34:25;6.17;;;3.87;;
10910;SDS011;5508;49.150;11.030;2023-04-27T14:37:25;8.50;;;3.50;;
10910;SDS011;5508;49.150;11.030;2023-04-27T14:40:29;7.10;;;5.60;;
10910;SDS011;5508;49.150;11.030;2023-04-27T14:43:30;6.07;;;3.87;;
10910;SDS011;5508;49.150;11.030;2023-04-27T14:46:31;6.30;;;5.67;;
10910;SDS011;5508;49.150;11.030;2023-04-27T14:49:31;4.87;;;3.40;;
10910;SDS011;5508;49.150;11.030;2023-04-27T14:52:32;5.23;;;3.17;;
10910;SDS011;5508;49.150;11.030;2023-04-27T14:55:33;7.80;;;5.53;;
10910;SDS011;5508;49.150;11.030;2023-04-27T14:58:33;5.77;;;3.50;;
10910;SDS011;5508;49.150;11.030;2023-04-27T15:01:34;7.67;;;4.43;;
10910;SDS011;5508;49.150;11.030;2023-04-27T15:04:35;7.43;;;4.80;;
10910;SDS011;5508;49.150;11.030;2023-04-27T15:07:37;4.97;;;3.80;;
10910;SDS011;5508;49.150;11.030;2023-04-27T15:10:37;5.70;;;4.30;;
10910;SDS011;5508;49.150;11.030;2023-04-27T15:13:38;7.47;;;3.77;;
10910;SDS011;5508;49.150;11.030;2023-04-27T15:16:38;8.13;;;3.83;;
10910;SDS011;5508;49.150;11.030;2023-04-27T15:19:39;8.63;;;4.10;;
10910;SDS011;5508;49.150;11.030;2023-04-27T15:22:40;6.87;;;4.10;;
10910;SDS011;5508;49.150;11.030;2023-04-27T15:25:41;5.23;;;4.00;;
10910;SDS011;5508;49.150;11.030;2023-04-27T15:28:42;5.40;;;4.50;;
10910;SDS011;5508;49.150;11.030;2023-04-27T15:31:43;6.53;;;5.67;;
10910;SDS011;5508;49.150;11.030;2023-04-27T15:34:45;5.50;;;3.83;;
10910;SDS011;5508;49.150;11.030;2023-04-27T15:37:46;5.70;;;4.30;;
10910;SDS011;5508;49.150;11.030;2023-04-27T15:40:46;7.77;;;4.47;;
10910;SDS011;5508;49.150;11.030;2023-04-27T15:43:47;10.63;;;3.93;;
10910;SDS011;5508;49.150;11.030;2023-04-27T15:46:49;11.37;;;7.47;;
10910;SDS011;5508;49.150;11.030;2023-04-27T15:49:50;6.60;;;4.40;;
10910;SDS011;5508;49.150;11.030;2023-04-27T15:52:50;7.80;;;3.97;;
10910;SDS011;5508;49.150;11.030;2023-04-27T15:55:51;7.10;;;3.70;;
10910;SDS011;5508;49.150;11.030;2023-04-27T15:58:52;6.33;;;4.07;;
10910;SDS011;5508;49.150;11.030;2023-04-27T16:01:52;5.20;;;3.37;;
10910;SDS011;5508;49.150;11.030;2023-04-27T16:04:53;7.50;;;4.10;;
10910;SDS011;5508;49.150;11.030;2023-04-27T16:07:55;5.07;;;4.07;;
10910;SDS011;5508;49.150;11.030;2023-04-27T16:10:55;5.37;;;3.50;;
10910;SDS011;5508;49.150;11.030;2023-04-27T16:13:56;5.97;;;3.77;;
10910;SDS011;5508;49.150;11.030;2023-04-27T16:16:57;5.50;;;3.90;;
10910;SDS011;5508;49.150;11.030;2023-04-27T16:19:59;8.17;;;4.40;;
10910;SDS011;5508;49.150;11.030;2023-04-27T16:22:59;6.37;;;4.47;;
10910;SDS011;5508;49.150;11.030;2023-04-27T16:26:00;9.37;;;5.87;;
10910;SDS011;5508;49.150;11.030;2023-04-27T16:29:00;9.00;;;4.07;;
10910;SDS011;5508;49.150;11.030;2023-04-27T16:32:01;5.83;;;3.60;;
10910;SDS011;5508;49.150;11.030;2023-04-27T16:35:02;6.93;;;4.37;;
10910;SDS011;5508;49.150;11.030;2023-04-27T16:38:03;6.40;;;4.57;;
10910;SDS011;5508;49.150;11.030;2023-04-27T16:41:04;9.77;;;8.37;;
10910;SDS011;5508;49.150;11.030;2023-04-27T16:44:05;4.10;;;3.73;;
10910;SDS011;5508;49.150;11.030;2023-04-27T16:47:06;4.07;;;3.67;;
10910;SDS011;5508;49.150;11.030;2023-04-27T16:50:06;4.40;;;3.30;;
10910;SDS011;5508;49.150;11.030;2023-04-27T16:53:08;5.30;;;3.43;;
10910;SDS011;5508;49.150;11.030;2023-04-27T16:56:12;5.87;;;3.30;;
10910;SDS011;5508;49.150;11.030;2023-04-27T16:59:13;9.30;;;2.90;;
10910;SDS011;5508;49.150;11.030;2023-04-27T17:02:13;8.73;;;3.77;;
10910;SDS011;5508;49.150;11.030;2023-04-27T17:05:14;6.40;;;3.43;;
10910;SDS011;5508;49.150;11.030;2023-04-27T17:08:15;6.07;;;3.93;;
10910;SDS011;5508;49.150;11.030;2023-04-27T17:11:16;10.33;;;5.63;;
10910;SDS011;5508;49.150;11.030;2023-04-27T17:14:18;7.03;;;3.80;;
10910;SDS011;5508;49.150;11.030;2023-04-27T17:17:18;5.33;;;3.87;;
10910;SDS011;5508;49.150;11.030;2023-04-27T17:20:20;6.70;;;4.43;;
10910;SDS011;5508;49.150;11.030;2023-04-27T17:23:21;6.23;;;3.83;;
10910;SDS011;5508;49.150;11.030;2023-04-27T17:26:22;7.50;;;3.93;;
10910;SDS011;5508;49.150;11.030;2023-04-27T17:29:23;7.33;;;4.33;;
10910;SDS011;5508;49.150;11.030;2023-04-27T17:32:24;8.27;;;3.73;;
10910;SDS011;5508;49.150;11.030;2023-04-27T17:35:25;9.10;;;6.00;;
10910;SDS011;5508;49.150;11.030;2023-04-27T17:38:26;6.07;;;4.33;;
10910;SDS011;5508;49.150;11.030;2023-04-27T17:41:27;7.10;;;3.90;;
10910;SDS011;5508;49.150;11.030;2023-04-27T17:44:28;5.60;;;3.37;;
10910;SDS011;5508;49.150;11.030;2023-04-27T17:47:29;5.17;;;3.40;;
10910;SDS011;5508;49.150;11.030;2023-04-27T17:50:31;4.47;;;3.10;;
10910;SDS011;5508;49.150;11.030;2023-04-27T17:53:33;6.00;;;3.80;;
10910;SDS011;5508;49.150;11.030;2023-04-27T17:56:34;4.67;;;3.30;;
10910;SDS011;5508;49.150;11.030;2023-04-27T17:59:35;3.80;;;2.57;;
10910;SDS011;5508;49.150;11.030;2023-04-27T18:02:36;5.70;;;2.57;;
10910;SDS011;5508;49.150;11.030;2023-04-27T18:05:37;2.70;;;2.00;;
10910;SDS011;5508;49.150;11.030;2023-04-27T18:08:37;3.07;;;2.23;;
10910;SDS011;5508;49.150;11.030;2023-04-27T18:11:41;10.87;;;7.50;;
10910;SDS011;5508;49.150;11.030;2023-04-27T18:14:41;24.87;;;16.83;;
10910;SDS011;5508;49.150;11.030;2023-04-27T18:17:42;17.60;;;12.87;;